sensor_id;sensor_type;location;lat;lon;timestamp;temperature;humidity
61351;DHT22;47119;49.130;9.218;2022-09-09T00:01:25;19.71;64.59
61351;DHT22;47119;49.130;9.218;2022-09-09T00:04:13;19.74;64.50
61351;DHT22;47119;49.130;9.218;2022-09-09T00:07:18;19.71;64.41
61351;DHT22;47119;49.130;9.218;2022-09-09T00:10:08;19.69;64.19
61351;DHT22;47119;49.130;9.218;2022-09-09T00:12:59;19.72;63.97
61351;DHT22;47119;49.130;9.218;2022-09-09T00:15:38;19.69;63.74
61351;DHT22;47119;49.130;9.218;2022-09-09T00:18:17;19.72;63.48
61351;DHT22;47119;49.130;9.218;2022-09-09T00:20:55;19.72;63.42
61351;DHT22;47119;49.130;9.218;2022-09-09T00:23:32;19.72;63.22
61351;DHT22;47119;49.130;9.218;2022-09-09T00:26:08;19.74;62.98
61351;DHT22;47119;49.130;9.218;2022-09-09T00:28:48;19.72;62.90
61351;DHT22;47119;49.130;9.218;2022-09-09T00:31:25;19.77;62.66
61351;DHT22;47119;49.130;9.218;2022-09-09T00:33:55;19.75;62.56
61351;DHT22;47119;49.130;9.218;2022-09-09T00:36:32;19.78;62.44
61351;DHT22;47119;49.130;9.218;2022-09-09T00:39:02;19.79;62.24
61351;DHT22;47119;49.130;9.218;2022-09-09T00:41:42;19.81;62.06
61351;DHT22;47119;49.130;9.218;2022-09-09T00:44:28;19.81;61.90
61351;DHT22;47119;49.130;9.218;2022-09-09T00:47:20;19.81;61.97
61351;DHT22;47119;49.130;9.218;2022-09-09T00:50:00;19.79;61.90
61351;DHT22;47119;49.130;9.218;2022-09-09T00:52:39;19.81;61.74
61351;DHT22;47119;49.130;9.218;2022-09-09T00:55:16;19.79;61.61
61351;DHT22;47119;49.130;9.218;2022-09-09T00:57:52;19.78;61.71
61351;DHT22;47119;49.130;9.218;2022-09-09T01:00:25;19.82;61.60
61351;DHT22;47119;49.130;9.218;2022-09-09T01:03:22;19.82;61.49
61351;DHT22;47119;49.130;9.218;2022-09-09T01:06:01;19.81;61.47
61351;DHT22;47119;49.130;9.218;2022-09-09T01:08:48;19.81;61.38
61351;DHT22;47119;49.130;9.218;2022-09-09T01:11:33;19.83;61.49
61351;DHT22;47119;49.130;9.218;2022-09-09T01:14:14;19.83;61.45
61351;DHT22;47119;49.130;9.218;2022-09-09T01:16:54;19.82;61.63
61351;DHT22;47119;49.130;9.218;2022-09-09T01:19:37;19.82;61.50
61351;DHT22;47119;49.130;9.218;2022-09-09T01:22:25;19.79;61.49
61351;DHT22;47119;49.130;9.218;2022-09-09T01:25:17;19.79;61.51
61351;DHT22;47119;49.130;9.218;2022-09-09T01:28:02;19.79;61.54
61351;DHT22;47119;49.130;9.218;2022-09-09T01:30:39;19.81;61.47
61351;DHT22;47119;49.130;9.218;2022-09-09T01:33:13;19.79;61.48
61351;DHT22;47119;49.130;9.218;2022-09-09T01:35:48;19.79;61.46
61351;DHT22;47119;49.130;9.218;2022-09-09T01:38:24;19.82;61.43
61351;DHT22;47119;49.130;9.218;2022-09-09T01:40:55;19.82;61.45
61351;DHT22;47119;49.130;9.218;2022-09-09T01:43:31;19.82;61.57
61351;DHT22;47119;49.130;9.218;2022-09-09T01:46:01;19.83;61.48
61351;DHT22;47119;49.130;9.218;2022-09-09T01:48:33;19.81;61.57
61351;DHT22;47119;49.130;9.218;2022-09-09T01:51:03;19.81;61.46
61351;DHT22;47119;49.130;9.218;2022-09-09T01:53:31;19.81;61.76
61351;DHT22;47119;49.130;9.218;2022-09-09T01:56:07;19.82;61.59
61351;DHT22;47119;49.130;9.218;2022-09-09T01:59:02;19.82;61.63
61351;DHT22;47119;49.130;9.218;2022-09-09T02:01:50;19.83;61.58
61351;DHT22;47119;49.130;9.218;2022-09-09T02:04:35;19.82;61.70
61351;DHT22;47119;49.130;9.218;2022-09-09T02:07:21;19.83;61.59
61351;DHT22;47119;49.130;9.218;2022-09-09T02:10:10;19.82;61.68
61351;DHT22;47119;49.130;9.218;2022-09-09T02:12:53;19.83;61.71
61351;DHT22;47119;49.130;9.218;2022-09-09T02:15:30;19.83;61.70
61351;DHT22;47119;49.130;9.218;2022-09-09T02:18:06;19.82;61.75
61351;DHT22;47119;49.130;9.218;2022-09-09T02:20:37;19.83;61.59
61351;DHT22;47119;49.130;9.218;2022-09-09T02:23:07;19.83;62.06
61351;DHT22;47119;49.130;9.218;2022-09-09T02:25:40;19.85;62.85
61351;DHT22;47119;49.130;9.218;2022-09-09T02:28:19;19.86;63.05
61351;DHT22;47119;49.130;9.218;2022-09-09T02:30:55;19.83;64.43
61351;DHT22;47119;49.130;9.218;2022-09-09T02:33:33;19.83;65.37
61351;DHT22;47119;49.130;9.218;2022-09-09T02:36:07;19.83;65.81
61351;DHT22;47119;49.130;9.218;2022-09-09T02:38:46;19.85;66.34
61351;DHT22;47119;49.130;9.218;2022-09-09T02:41:20;19.82;66.72
61351;DHT22;47119;49.130;9.218;2022-09-09T02:43:51;19.79;65.86
61351;DHT22;47119;49.130;9.218;2022-09-09T02:46:36;19.75;66.26
61351;DHT22;47119;49.130;9.218;2022-09-09T02:49:19;19.75;66.75
61351;DHT22;47119;49.130;9.218;2022-09-09T02:51:59;19.72;66.27
61351;DHT22;47119;49.130;9.218;2022-09-09T02:54:35;19.75;66.31
61351;DHT22;47119;49.130;9.218;2022-09-09T02:57:11;19.77;66.91
61351;DHT22;47119;49.130;9.218;2022-09-09T02:59:43;19.71;67.00
61351;DHT22;47119;49.130;9.218;2022-09-09T03:02:12;19.74;66.79
61351;DHT22;47119;49.130;9.218;2022-09-09T03:04:41;19.75;66.81
61351;DHT22;47119;49.130;9.218;2022-09-09T03:07:10;19.72;67.18
61351;DHT22;47119;49.130;9.218;2022-09-09T03:09:40;19.74;67.20
61351;DHT22;47119;49.130;9.218;2022-09-09T03:12:07;19.71;67.27
61351;DHT22;47119;49.130;9.218;2022-09-09T03:14:38;19.71;67.42
61351;DHT22;47119;49.130;9.218;2022-09-09T03:17:05;19.69;67.23
61351;DHT22;47119;49.130;9.218;2022-09-09T03:19:40;19.72;67.05
61351;DHT22;47119;49.130;9.218;2022-09-09T03:22:09;19.69;67.17
61351;DHT22;47119;49.130;9.218;2022-09-09T03:24:41;19.67;67.02
61351;DHT22;47119;49.130;9.218;2022-09-09T03:27:10;19.68;67.16
61351;DHT22;47119;49.130;9.218;2022-09-09T03:29:39;19.67;67.15
61351;DHT22;47119;49.130;9.218;2022-09-09T03:32:13;19.68;66.98
61351;DHT22;47119;49.130;9.218;2022-09-09T03:34:45;19.65;66.69
61351;DHT22;47119;49.130;9.218;2022-09-09T03:37:13;19.62;66.85
61351;DHT22;47119;49.130;9.218;2022-09-09T03:39:43;19.59;66.85
61351;DHT22;47119;49.130;9.218;2022-09-09T03:42:12;19.61;66.70
61351;DHT22;47119;49.130;9.218;2022-09-09T03:44:56;19.58;66.43
61351;DHT22;47119;49.130;9.218;2022-09-09T03:47:25;19.55;66.25
61351;DHT22;47119;49.130;9.218;2022-09-09T03:50:00;19.57;66.15
61351;DHT22;47119;49.130;9.218;2022-09-09T03:52:30;19.59;66.11
61351;DHT22;47119;49.130;9.218;2022-09-09T03:54:57;19.58;66.16
61351;DHT22;47119;49.130;9.218;2022-09-09T03:57:27;19.58;66.00
61351;DHT22;47119;49.130;9.218;2022-09-09T03:59:55;19.58;66.04
61351;DHT22;47119;49.130;9.218;2022-09-09T04:02:23;19.57;65.77
61351;DHT22;47119;49.130;9.218;2022-09-09T04:04:53;19.57;65.70
61351;DHT22;47119;49.130;9.218;2022-09-09T04:07:24;19.55;65.86
61351;DHT22;47119;49.130;9.218;2022-09-09T04:09:52;19.55;65.70
61351;DHT22;47119;49.130;9.218;2022-09-09T04:12:20;19.57;65.70
61351;DHT22;47119;49.130;9.218;2022-09-09T04:14:48;19.54;65.66
61351;DHT22;47119;49.130;9.218;2022-09-09T04:17:18;19.54;65.51
61351;DHT22;47119;49.130;9.218;2022-09-09T04:19:45;19.54;65.23
61351;DHT22;47119;49.130;9.218;2022-09-09T04:22:12;19.51;65.06
61351;DHT22;47119;49.130;9.218;2022-09-09T04:24:41;19.50;65.34
61351;DHT22;47119;49.130;9.218;2022-09-09T04:27:08;19.50;65.27
61351;DHT22;47119;49.130;9.218;2022-09-09T04:29:36;19.50;65.08
61351;DHT22;47119;49.130;9.218;2022-09-09T04:32:04;19.50;65.20
61351;DHT22;47119;49.130;9.218;2022-09-09T04:34:32;19.47;65.12
61351;DHT22;47119;49.130;9.218;2022-09-09T04:36:59;19.50;65.12
61351;DHT22;47119;49.130;9.218;2022-09-09T04:39:26;19.48;65.04
61351;DHT22;47119;49.130;9.218;2022-09-09T04:41:56;19.48;64.96
61351;DHT22;47119;49.130;9.218;2022-09-09T04:44:26;19.50;64.96
61351;DHT22;47119;49.130;9.218;2022-09-09T04:46:55;19.44;64.83
61351;DHT22;47119;49.130;9.218;2022-09-09T04:49:22;19.48;64.98
61351;DHT22;47119;49.130;9.218;2022-09-09T04:51:53;19.47;64.69
61351;DHT22;47119;49.130;9.218;2022-09-09T04:54:21;19.47;64.61
61351;DHT22;47119;49.130;9.218;2022-09-09T04:56:50;19.47;64.76
61351;DHT22;47119;49.130;9.218;2022-09-09T04:59:19;19.48;64.65
61351;DHT22;47119;49.130;9.218;2022-09-09T05:01:53;19.47;64.54
61351;DHT22;47119;49.130;9.218;2022-09-09T05:04:21;19.44;64.49
61351;DHT22;47119;49.130;9.218;2022-09-09T05:06:48;19.46;64.33
61351;DHT22;47119;49.130;9.218;2022-09-09T05:09:15;19.47;64.44
61351;DHT22;47119;49.130;9.218;2022-09-09T05:11:44;19.46;64.27
61351;DHT22;47119;49.130;9.218;2022-09-09T05:14:34;19.47;64.18
61351;DHT22;47119;49.130;9.218;2022-09-09T05:17:03;19.47;64.19
61351;DHT22;47119;49.130;9.218;2022-09-09T05:19:32;19.43;64.06
61351;DHT22;47119;49.130;9.218;2022-09-09T05:21:59;19.44;64.02
61351;DHT22;47119;49.130;9.218;2022-09-09T05:24:35;19.46;64.01
61351;DHT22;47119;49.130;9.218;2022-09-09T05:27:03;19.46;64.09
61351;DHT22;47119;49.130;9.218;2022-09-09T05:29:32;19.44;64.07
61351;DHT22;47119;49.130;9.218;2022-09-09T05:32:05;19.46;64.05
61351;DHT22;47119;49.130;9.218;2022-09-09T05:34:34;19.43;64.21
61351;DHT22;47119;49.130;9.218;2022-09-09T05:37:03;19.44;64.16
61351;DHT22;47119;49.130;9.218;2022-09-09T05:39:33;19.46;64.28
61351;DHT22;47119;49.130;9.218;2022-09-09T05:42:05;19.44;64.31
61351;DHT22;47119;49.130;9.218;2022-09-09T05:44:32;19.44;64.26
61351;DHT22;47119;49.130;9.218;2022-09-09T05:47:00;19.38;64.30
61351;DHT22;47119;49.130;9.218;2022-09-09T05:49:31;19.43;64.21
61351;DHT22;47119;49.130;9.218;2022-09-09T05:51:59;19.41;64.27
61351;DHT22;47119;49.130;9.218;2022-09-09T05:54:28;19.46;64.30
61351;DHT22;47119;49.130;9.218;2022-09-09T05:56:55;19.43;64.32
61351;DHT22;47119;49.130;9.218;2022-09-09T05:59:24;19.43;64.15
61351;DHT22;47119;49.130;9.218;2022-09-09T06:01:55;19.47;64.34
61351;DHT22;47119;49.130;9.218;2022-09-09T06:04:32;19.44;64.34
61351;DHT22;47119;49.130;9.218;2022-09-09T06:07:00;19.46;64.30
61351;DHT22;47119;49.130;9.218;2022-09-09T06:09:30;19.46;64.17
61351;DHT22;47119;49.130;9.218;2022-09-09T06:11:57;19.50;64.15
61351;DHT22;47119;49.130;9.218;2022-09-09T06:14:25;19.53;64.19
61351;DHT22;47119;49.130;9.218;2022-09-09T06:16:53;19.54;64.17
61351;DHT22;47119;49.130;9.218;2022-09-09T06:19:25;19.53;64.15
61351;DHT22;47119;49.130;9.218;2022-09-09T06:21:59;19.54;64.17
61351;DHT22;47119;49.130;9.218;2022-09-09T06:24:29;19.54;64.27
61351;DHT22;47119;49.130;9.218;2022-09-09T06:26:59;19.55;64.22
61351;DHT22;47119;49.130;9.218;2022-09-09T06:29:33;19.57;64.35
61351;DHT22;47119;49.130;9.218;2022-09-09T06:32:01;19.59;64.39
61351;DHT22;47119;49.130;9.218;2022-09-09T06:34:31;19.61;64.30
61351;DHT22;47119;49.130;9.218;2022-09-09T06:37:00;19.64;64.26
61351;DHT22;47119;49.130;9.218;2022-09-09T06:39:41;19.64;64.45
61351;DHT22;47119;49.130;9.218;2022-09-09T06:42:08;19.65;64.52
61351;DHT22;47119;49.130;9.218;2022-09-09T06:44:47;19.67;64.48
61351;DHT22;47119;49.130;9.218;2022-09-09T06:47:22;19.67;64.45
61351;DHT22;47119;49.130;9.218;2022-09-09T06:49:53;19.68;64.40
61351;DHT22;47119;49.130;9.218;2022-09-09T06:52:23;19.69;64.43
61351;DHT22;47119;49.130;9.218;2022-09-09T06:54:51;19.74;64.50
61351;DHT22;47119;49.130;9.218;2022-09-09T06:57:18;19.74;64.39
61351;DHT22;47119;49.130;9.218;2022-09-09T06:59:45;19.71;64.34
61351;DHT22;47119;49.130;9.218;2022-09-09T07:02:13;19.75;64.49
61351;DHT22;47119;49.130;9.218;2022-09-09T07:04:45;19.77;64.36
61351;DHT22;47119;49.130;9.218;2022-09-09T07:07:15;19.78;64.33
61351;DHT22;47119;49.130;9.218;2022-09-09T07:09:45;19.77;64.37
61351;DHT22;47119;49.130;9.218;2022-09-09T07:12:12;19.78;64.51
61351;DHT22;47119;49.130;9.218;2022-09-09T07:14:49;19.81;64.41
61351;DHT22;47119;49.130;9.218;2022-09-09T07:17:21;19.81;64.54
61351;DHT22;47119;49.130;9.218;2022-09-09T07:19:48;19.82;64.45
61351;DHT22;47119;49.130;9.218;2022-09-09T07:22:16;19.82;64.48
61351;DHT22;47119;49.130;9.218;2022-09-09T07:24:45;19.82;64.34
61351;DHT22;47119;49.130;9.218;2022-09-09T07:27:17;19.83;64.19
61351;DHT22;47119;49.130;9.218;2022-09-09T07:29:49;19.83;64.25
61351;DHT22;47119;49.130;9.218;2022-09-09T07:32:17;19.86;64.30
61351;DHT22;47119;49.130;9.218;2022-09-09T07:34:46;19.85;64.18
61351;DHT22;47119;49.130;9.218;2022-09-09T07:37:29;19.85;64.42
61351;DHT22;47119;49.130;9.218;2022-09-09T07:40:03;19.88;64.48
61351;DHT22;47119;49.130;9.218;2022-09-09T07:42:31;19.92;64.48
61351;DHT22;47119;49.130;9.218;2022-09-09T07:44:58;19.93;64.57
61351;DHT22;47119;49.130;9.218;2022-09-09T07:47:26;19.96;64.28
61351;DHT22;47119;49.130;9.218;2022-09-09T07:49:58;19.98;64.19
61351;DHT22;47119;49.130;9.218;2022-09-09T07:52:31;20.02;64.34
61351;DHT22;47119;49.130;9.218;2022-09-09T07:55:05;20.05;64.32
61351;DHT22;47119;49.130;9.218;2022-09-09T07:57:32;20.06;64.37
61351;DHT22;47119;49.130;9.218;2022-09-09T08:00:03;20.02;64.29
61351;DHT22;47119;49.130;9.218;2022-09-09T08:02:40;20.04;64.25
61351;DHT22;47119;49.130;9.218;2022-09-09T08:05:12;20.06;64.27
61351;DHT22;47119;49.130;9.218;2022-09-09T08:07:40;20.08;64.59
61351;DHT22;47119;49.130;9.218;2022-09-09T08:10:09;20.13;64.74
61351;DHT22;47119;49.130;9.218;2022-09-09T08:12:39;20.15;64.71
61351;DHT22;47119;49.130;9.218;2022-09-09T08:15:08;20.16;64.82
61351;DHT22;47119;49.130;9.218;2022-09-09T08:17:39;20.19;64.81
61351;DHT22;47119;49.130;9.218;2022-09-09T08:20:08;20.22;64.58
61351;DHT22;47119;49.130;9.218;2022-09-09T08:22:37;20.22;64.48
61351;DHT22;47119;49.130;9.218;2022-09-09T08:25:17;20.23;64.52
61351;DHT22;47119;49.130;9.218;2022-09-09T08:27:44;20.26;64.17
61351;DHT22;47119;49.130;9.218;2022-09-09T08:30:12;20.26;64.29
61351;DHT22;47119;49.130;9.218;2022-09-09T08:32:39;20.26;64.10
61351;DHT22;47119;49.130;9.218;2022-09-09T08:35:08;20.32;64.20
61351;DHT22;47119;49.130;9.218;2022-09-09T08:37:35;20.32;64.13
61351;DHT22;47119;49.130;9.218;2022-09-09T08:40:03;20.34;63.95
61351;DHT22;47119;49.130;9.218;2022-09-09T08:42:39;20.34;63.73
61351;DHT22;47119;49.130;9.218;2022-09-09T08:45:29;20.34;63.22
61351;DHT22;47119;49.130;9.218;2022-09-09T08:48:14;20.33;63.25
61351;DHT22;47119;49.130;9.218;2022-09-09T08:50:55;20.34;63.37
61351;DHT22;47119;49.130;9.218;2022-09-09T08:53:29;20.36;63.20
61351;DHT22;47119;49.130;9.218;2022-09-09T08:56:10;20.37;63.04
61351;DHT22;47119;49.130;9.218;2022-09-09T08:58:52;20.39;63.07
61351;DHT22;47119;49.130;9.218;2022-09-09T09:01:41;20.41;62.67
61351;DHT22;47119;49.130;9.218;2022-09-09T09:04:38;20.39;62.46
61351;DHT22;47119;49.130;9.218;2022-09-09T09:07:21;20.41;62.15
61351;DHT22;47119;49.130;9.218;2022-09-09T09:10:12;20.43;62.30
61351;DHT22;47119;49.130;9.218;2022-09-09T09:12:48;20.43;62.28
61351;DHT22;47119;49.130;9.218;2022-09-09T09:15:23;20.43;62.26
61351;DHT22;47119;49.130;9.218;2022-09-09T09:17:54;20.41;62.33
61351;DHT22;47119;49.130;9.218;2022-09-09T09:20:28;20.41;62.29
61351;DHT22;47119;49.130;9.218;2022-09-09T09:23:06;20.43;62.50
61351;DHT22;47119;49.130;9.218;2022-09-09T09:25:44;20.44;62.55
61351;DHT22;47119;49.130;9.218;2022-09-09T09:28:16;20.46;62.59
61351;DHT22;47119;49.130;9.218;2022-09-09T09:30:52;20.47;62.67
61351;DHT22;47119;49.130;9.218;2022-09-09T09:33:29;20.47;62.65
61351;DHT22;47119;49.130;9.218;2022-09-09T09:36:05;20.48;62.38
61351;DHT22;47119;49.130;9.218;2022-09-09T09:38:35;20.50;62.57
61351;DHT22;47119;49.130;9.218;2022-09-09T09:41:04;20.50;62.72
61351;DHT22;47119;49.130;9.218;2022-09-09T09:43:32;20.51;63.47
61351;DHT22;47119;49.130;9.218;2022-09-09T09:46:20;20.43;67.35
61351;DHT22;47119;49.130;9.218;2022-09-09T09:48:59;20.37;70.18
61351;DHT22;47119;49.130;9.218;2022-09-09T09:51:29;20.36;71.89
61351;DHT22;47119;49.130;9.218;2022-09-09T09:54:13;20.36;72.45
61351;DHT22;47119;49.130;9.218;2022-09-09T09:56:56;20.34;73.05
61351;DHT22;47119;49.130;9.218;2022-09-09T09:59:36;20.36;73.83
61351;DHT22;47119;49.130;9.218;2022-09-09T10:02:16;20.36;74.35
61351;DHT22;47119;49.130;9.218;2022-09-09T10:05:00;20.37;74.28
61351;DHT22;47119;49.130;9.218;2022-09-09T10:07:31;20.32;74.70
61351;DHT22;47119;49.130;9.218;2022-09-09T10:09:59;20.33;74.78
61351;DHT22;47119;49.130;9.218;2022-09-09T10:12:39;20.27;74.84
61351;DHT22;47119;49.130;9.218;2022-09-09T10:15:29;20.29;75.22
61351;DHT22;47119;49.130;9.218;2022-09-09T10:18:17;20.29;75.25
61351;DHT22;47119;49.130;9.218;2022-09-09T10:21:06;20.30;75.68
61351;DHT22;47119;49.130;9.218;2022-09-09T10:23:54;20.25;75.55
61351;DHT22;47119;49.130;9.218;2022-09-09T10:26:40;20.20;75.66
61351;DHT22;47119;49.130;9.218;2022-09-09T10:29:33;20.22;75.37
61351;DHT22;47119;49.130;9.218;2022-09-09T10:32:37;20.19;75.43
61351;DHT22;47119;49.130;9.218;2022-09-09T10:35:22;20.27;74.19
61351;DHT22;47119;49.130;9.218;2022-09-09T10:38:14;20.36;72.91
61351;DHT22;47119;49.130;9.218;2022-09-09T10:41:13;20.33;72.19
61351;DHT22;47119;49.130;9.218;2022-09-09T10:44:06;20.36;71.00
61351;DHT22;47119;49.130;9.218;2022-09-09T10:46:58;20.36;71.14
61351;DHT22;47119;49.130;9.218;2022-09-09T10:49:57;20.29;72.20
61351;DHT22;47119;49.130;9.218;2022-09-09T10:52:48;20.22;72.77
61351;DHT22;47119;49.130;9.218;2022-09-09T10:55:35;20.19;73.76
61351;DHT22;47119;49.130;9.218;2022-09-09T10:58:10;20.25;74.60
61351;DHT22;47119;49.130;9.218;2022-09-09T11:00:44;20.37;73.62
61351;DHT22;47119;49.130;9.218;2022-09-09T11:03:18;20.40;75.48
61351;DHT22;47119;49.130;9.218;2022-09-09T11:05:55;20.41;75.06
61351;DHT22;47119;49.130;9.218;2022-09-09T11:08:29;20.37;75.38
61351;DHT22;47119;49.130;9.218;2022-09-09T11:11:03;20.34;75.91
61351;DHT22;47119;49.130;9.218;2022-09-09T11:13:38;20.30;75.94
61351;DHT22;47119;49.130;9.218;2022-09-09T11:16:19;20.32;76.46
61351;DHT22;47119;49.130;9.218;2022-09-09T11:18:55;20.25;75.99
61351;DHT22;47119;49.130;9.218;2022-09-09T11:21:28;20.32;75.78
61351;DHT22;47119;49.130;9.218;2022-09-09T11:24:02;20.29;76.08
61351;DHT22;47119;49.130;9.218;2022-09-09T11:26:44;20.32;75.74
61351;DHT22;47119;49.130;9.218;2022-09-09T11:29:45;20.34;76.60
61351;DHT22;47119;49.130;9.218;2022-09-09T11:32:47;20.34;75.04
61351;DHT22;47119;49.130;9.218;2022-09-09T11:35:55;20.34;75.38
61351;DHT22;47119;49.130;9.218;2022-09-09T11:38:38;20.34;75.28
61351;DHT22;47119;49.130;9.218;2022-09-09T11:41:15;20.36;77.17
61351;DHT22;47119;49.130;9.218;2022-09-09T11:43:46;20.37;76.41
61351;DHT22;47119;49.130;9.218;2022-09-09T11:46:18;20.39;75.51
61351;DHT22;47119;49.130;9.218;2022-09-09T11:49:00;20.39;75.14
61351;DHT22;47119;49.130;9.218;2022-09-09T11:51:32;20.37;75.78
61351;DHT22;47119;49.130;9.218;2022-09-09T11:54:02;20.32;74.24
61351;DHT22;47119;49.130;9.218;2022-09-09T11:56:56;20.33;76.72
61351;DHT22;47119;49.130;9.218;2022-09-09T11:59:27;20.29;74.97
61351;DHT22;47119;49.130;9.218;2022-09-09T12:01:57;20.33;73.75
61351;DHT22;47119;49.130;9.218;2022-09-09T12:04:33;20.33;74.73
61351;DHT22;47119;49.130;9.218;2022-09-09T12:07:23;20.37;71.80
61351;DHT22;47119;49.130;9.218;2022-09-09T12:09:58;20.33;75.48
61351;DHT22;47119;49.130;9.218;2022-09-09T12:12:32;20.25;70.65
61351;DHT22;47119;49.130;9.218;2022-09-09T12:15:23;20.17;70.37
61351;DHT22;47119;49.130;9.218;2022-09-09T12:17:57;20.15;70.49
61351;DHT22;47119;49.130;9.218;2022-09-09T12:20:34;20.09;70.86
61351;DHT22;47119;49.130;9.218;2022-09-09T12:23:22;20.08;72.69
61351;DHT22;47119;49.130;9.218;2022-09-09T12:26:13;20.05;71.96
61351;DHT22;47119;49.130;9.218;2022-09-09T12:28:58;20.02;71.05
61351;DHT22;47119;49.130;9.218;2022-09-09T12:31:37;20.05;71.97
61351;DHT22;47119;49.130;9.218;2022-09-09T12:34:14;20.04;72.24
61351;DHT22;47119;49.130;9.218;2022-09-09T12:36:52;20.08;73.92
61351;DHT22;47119;49.130;9.218;2022-09-09T12:39:30;20.09;71.72
61351;DHT22;47119;49.130;9.218;2022-09-09T12:42:01;20.08;72.61
61351;DHT22;47119;49.130;9.218;2022-09-09T12:44:30;20.08;72.03
61351;DHT22;47119;49.130;9.218;2022-09-09T12:47:01;20.08;70.86
61351;DHT22;47119;49.130;9.218;2022-09-09T12:49:32;20.05;72.23
61351;DHT22;47119;49.130;9.218;2022-09-09T12:52:04;20.06;72.60
61351;DHT22;47119;49.130;9.218;2022-09-09T12:54:42;20.09;70.16
61351;DHT22;47119;49.130;9.218;2022-09-09T12:57:19;20.08;70.77
61351;DHT22;47119;49.130;9.218;2022-09-09T12:59:52;20.15;72.03
61351;DHT22;47119;49.130;9.218;2022-09-09T13:02:32;20.17;73.78
61351;DHT22;47119;49.130;9.218;2022-09-09T13:05:08;20.17;70.84
61351;DHT22;47119;49.130;9.218;2022-09-09T13:07:45;20.16;70.63
61351;DHT22;47119;49.130;9.218;2022-09-09T13:10:14;20.16;73.18
61351;DHT22;47119;49.130;9.218;2022-09-09T13:12:47;20.19;72.63
61351;DHT22;47119;49.130;9.218;2022-09-09T13:15:21;20.20;72.44
61351;DHT22;47119;49.130;9.218;2022-09-09T13:17:54;20.25;72.59
61351;DHT22;47119;49.130;9.218;2022-09-09T13:20:27;20.23;72.19
61351;DHT22;47119;49.130;9.218;2022-09-09T13:22:59;20.26;71.24
61351;DHT22;47119;49.130;9.218;2022-09-09T13:25:31;20.20;72.96
61351;DHT22;47119;49.130;9.218;2022-09-09T13:28:01;20.27;72.11
61351;DHT22;47119;49.130;9.218;2022-09-09T13:30:33;20.23;69.55
61351;DHT22;47119;49.130;9.218;2022-09-09T13:33:05;20.22;73.18
61351;DHT22;47119;49.130;9.218;2022-09-09T13:35:47;20.27;71.92
61351;DHT22;47119;49.130;9.218;2022-09-09T13:38:17;20.26;71.67
61351;DHT22;47119;49.130;9.218;2022-09-09T13:40:55;20.26;72.23
61351;DHT22;47119;49.130;9.218;2022-09-09T13:43:26;20.27;71.09
61351;DHT22;47119;49.130;9.218;2022-09-09T13:45:57;20.23;71.69
61351;DHT22;47119;49.130;9.218;2022-09-09T13:48:27;20.26;70.10
61351;DHT22;47119;49.130;9.218;2022-09-09T13:51:01;20.25;69.76
61351;DHT22;47119;49.130;9.218;2022-09-09T13:53:31;20.27;71.30
61351;DHT22;47119;49.130;9.218;2022-09-09T13:55:59;20.27;69.63
61351;DHT22;47119;49.130;9.218;2022-09-09T13:58:29;20.26;68.20
61351;DHT22;47119;49.130;9.218;2022-09-09T14:00:57;20.22;71.33
61351;DHT22;47119;49.130;9.218;2022-09-09T14:03:24;20.29;69.87
61351;DHT22;47119;49.130;9.218;2022-09-09T14:05:51;20.20;69.75
61351;DHT22;47119;49.130;9.218;2022-09-09T14:08:25;20.20;69.49
61351;DHT22;47119;49.130;9.218;2022-09-09T14:10:54;20.19;69.94
61351;DHT22;47119;49.130;9.218;2022-09-09T14:13:23;20.16;69.00
61351;DHT22;47119;49.130;9.218;2022-09-09T14:15:50;20.22;70.29
61351;DHT22;47119;49.130;9.218;2022-09-09T14:18:20;20.29;69.38
61351;DHT22;47119;49.130;9.218;2022-09-09T14:20:51;20.33;68.89
61351;DHT22;47119;49.130;9.218;2022-09-09T14:23:19;20.30;67.99
61351;DHT22;47119;49.130;9.218;2022-09-09T14:25:47;20.32;68.99
61351;DHT22;47119;49.130;9.218;2022-09-09T14:28:17;20.32;70.43
61351;DHT22;47119;49.130;9.218;2022-09-09T14:30:44;20.33;69.49
61351;DHT22;47119;49.130;9.218;2022-09-09T14:33:13;20.33;69.76
61351;DHT22;47119;49.130;9.218;2022-09-09T14:35:44;20.37;69.73
61351;DHT22;47119;49.130;9.218;2022-09-09T14:38:11;20.33;71.71
61351;DHT22;47119;49.130;9.218;2022-09-09T14:40:38;20.29;71.01
61351;DHT22;47119;49.130;9.218;2022-09-09T14:43:05;20.30;70.92
61351;DHT22;47119;49.130;9.218;2022-09-09T14:45:35;20.29;70.18
61351;DHT22;47119;49.130;9.218;2022-09-09T14:48:03;20.27;68.91
61351;DHT22;47119;49.130;9.218;2022-09-09T14:50:31;20.32;70.40
61351;DHT22;47119;49.130;9.218;2022-09-09T14:52:59;20.29;68.55
61351;DHT22;47119;49.130;9.218;2022-09-09T14:55:26;20.27;68.51
61351;DHT22;47119;49.130;9.218;2022-09-09T14:57:54;20.33;68.25
61351;DHT22;47119;49.130;9.218;2022-09-09T15:00:21;20.34;69.82
61351;DHT22;47119;49.130;9.218;2022-09-09T15:02:53;20.33;68.72
61351;DHT22;47119;49.130;9.218;2022-09-09T15:05:22;20.30;69.15
61351;DHT22;47119;49.130;9.218;2022-09-09T15:07:52;20.29;69.97
61351;DHT22;47119;49.130;9.218;2022-09-09T15:10:21;20.27;67.61
61351;DHT22;47119;49.130;9.218;2022-09-09T15:12:50;20.32;68.52
61351;DHT22;47119;49.130;9.218;2022-09-09T15:15:19;20.34;69.74
61351;DHT22;47119;49.130;9.218;2022-09-09T15:17:46;20.30;70.59
61351;DHT22;47119;49.130;9.218;2022-09-09T15:20:13;20.36;68.05
61351;DHT22;47119;49.130;9.218;2022-09-09T15:22:42;20.39;69.62
61351;DHT22;47119;49.130;9.218;2022-09-09T15:25:12;20.39;68.80
61351;DHT22;47119;49.130;9.218;2022-09-09T15:27:40;20.41;68.83
61351;DHT22;47119;49.130;9.218;2022-09-09T15:30:11;20.36;68.61
61351;DHT22;47119;49.130;9.218;2022-09-09T15:32:38;20.34;68.76
61351;DHT22;47119;49.130;9.218;2022-09-09T15:35:06;20.36;70.22
61351;DHT22;47119;49.130;9.218;2022-09-09T15:37:36;20.33;70.34
61351;DHT22;47119;49.130;9.218;2022-09-09T15:40:04;20.33;68.83
61351;DHT22;47119;49.130;9.218;2022-09-09T15:42:32;20.36;69.01
61351;DHT22;47119;49.130;9.218;2022-09-09T15:45:04;20.36;69.98
61351;DHT22;47119;49.130;9.218;2022-09-09T15:47:31;20.36;68.38
61351;DHT22;47119;49.130;9.218;2022-09-09T15:50:00;20.37;68.88
61351;DHT22;47119;49.130;9.218;2022-09-09T15:52:27;20.37;69.19
61351;DHT22;47119;49.130;9.218;2022-09-09T15:54:54;20.40;69.73
61351;DHT22;47119;49.130;9.218;2022-09-09T15:57:21;20.40;66.97
61351;DHT22;47119;49.130;9.218;2022-09-09T15:59:48;20.37;68.79
61351;DHT22;47119;49.130;9.218;2022-09-09T16:02:16;20.43;68.58
61351;DHT22;47119;49.130;9.218;2022-09-09T16:04:45;20.43;68.26
61351;DHT22;47119;49.130;9.218;2022-09-09T16:07:12;20.40;68.36
61351;DHT22;47119;49.130;9.218;2022-09-09T16:09:40;20.39;69.73
61351;DHT22;47119;49.130;9.218;2022-09-09T16:12:09;20.43;68.40
61351;DHT22;47119;49.130;9.218;2022-09-09T16:14:56;20.37;68.91